Time;durP1;ratioP1;P1;durP2;ratioP2;P2;SDS_P1;SDS_P2;PMS_P1;PMS_P2;Temp;Humidity;BMP_temperature;BMP_pressure;BME280_temperature;BME280_humidity;BME280_pressure;Samples;Min_cycle;Max_cycle;Signal;HPM_P1;HPM_P2
2023/05/30 00:00:13;;;;;;;14.60;3.75;;;;;;;9.02;84.23;102659.41;5072822;28;20472;-81
2023/05/30 00:02:41;;;;;;;12.60;3.22;;;;;;;8.68;84.51;102623.41;5072788;28;20383;-82
2023/05/30 00:05:07;;;;;;;12.82;3.15;;;;;;;8.67;84.98;102626.03;5072720;28;20475;-84
2023/05/30 00:07:33;;;;;;;12.20;3.42;;;;;;;8.71;85.73;102636.19;5072796;28;20060;-84
2023/05/30 00:09:58;;;;;;;13.32;2.67;;;;;;;8.89;85.96;102669.19;5072972;28;20476;-82
2023/05/30 00:12:24;;;;;;;14.20;3.63;;;;;;;8.83;85.92;102664.19;5073102;28;20028;-84
2023/05/30 00:14:49;;;;;;;17.25;3.38;;;;;;;8.83;86.28;102664.19;5072880;28;20094;-83
2023/05/30 00:17:16;;;;;;;14.10;3.10;;;;;;;8.78;86.67;102663.50;5072865;28;20032;-85
2023/05/30 00:19:45;;;;;;;11.05;3.20;;;;;;;8.22;86.94;102580.78;5073184;28;20020;-83
2023/05/30 00:22:11;;;;;;;13.07;3.47;;;;;;;8.49;87.57;102614.47;5072565;28;20127;-83
2023/05/30 00:24:36;;;;;;;15.07;3.80;;;;;;;8.60;87.67;102635.63;5072992;28;20108;-83
2023/05/30 00:27:01;;;;;;;12.82;3.53;;;;;;;8.68;87.95;102658.63;5072878;28;20085;-82
2023/05/30 00:29:27;;;;;;;14.50;3.80;;;;;;;8.66;88.34;102665.53;5072786;28;20527;-83
2023/05/30 00:31:52;;;;;;;13.25;3.45;;;;;;;8.61;88.48;102673.38;5054263;28;20115;-83
2023/05/30 00:34:17;;;;;;;9.93;3.13;;;;;;;8.46;88.81;102648.88;5072479;28;20434;-83
2023/05/30 00:36:43;;;;;;;17.48;3.58;;;;;;;8.58;88.92;102668.31;5072633;28;20056;-83
2023/05/30 00:41:33;;;;;;;14.82;3.58;;;;;;;8.29;90.30;102636.38;5115120;22;20055;-82
2023/05/30 00:43:58;;;;;;;14.73;3.95;;;;;;;8.43;90.29;102669.50;5113017;28;20027;-82
2023/05/30 00:46:26;;;;;;;16.35;3.67;;;;;;;8.46;90.71;102676.34;5112996;28;20019;-82
2023/05/30 00:48:52;;;;;;;16.42;3.83;;;;;;;8.47;90.43;102676.31;5112886;28;20360;-80
2023/05/30 00:51:19;;;;;;;10.38;3.47;;;;;;;8.33;90.77;102657.72;5112975;28;20582;-83
2023/05/30 00:53:44;;;;;;;12.05;3.63;;;;;;;8.45;90.57;102677.19;5112764;28;20053;-82
2023/05/30 00:56:12;;;;;;;17.58;3.75;;;;;;;8.37;91.38;102669.69;5111639;28;20486;-82
2023/05/30 00:58:38;;;;;;;17.10;4.35;;;;;;;8.36;91.33;102675.72;5115812;28;20024;-83
2023/05/30 01:01:04;;;;;;;15.73;4.07;;;;;;;8.31;91.31;102665.47;5117071;28;20030;-83
2023/05/30 01:06:37;;;;;;;16.35;4.60;;;;;;;7.45;91.55;102545.75;5011902;28;20037;-81
2023/05/30 01:09:06;;;;;;;13.18;3.58;;;;;;;7.07;92.24;102487.47;5000544;28;20048;-83
2023/05/30 01:12:00;;;;;;;20.27;4.75;;;;;;;8.23;92.07;102684.56;5034170;28;20065;-83
2023/05/30 01:15:10;;;;;;;12.48;4.10;;;;;;;8.19;92.04;102676.06;5034237;28;20025;-83
2023/05/30 01:18:04;;;;;;;15.02;3.88;;;;;;;8.19;92.18;102681.22;5031002;28;20033;-81
2023/05/30 01:21:12;;;;;;;15.45;3.60;;;;;;;6.96;92.64;102478.31;5033897;28;20032;-81
2023/05/30 01:24:05;;;;;;;16.38;4.65;;;;;;;8.18;92.98;102687.25;5033821;28;20037;-80
2023/05/30 01:27:03;;;;;;;13.05;3.55;;;;;;;8.14;92.91;102685.63;5034093;28;20133;-80
2023/05/30 01:29:31;;;;;;;15.77;4.40;;;;;;;7.95;94.11;102659.47;5033785;28;20030;-80
2023/05/30 01:31:58;;;;;;;13.15;4.28;;;;;;;7.75;94.26;102634.19;5033860;28;20112;-81
2023/05/30 01:34:26;;;;;;;13.25;4.20;;;;;;;7.93;94.48;102662.97;5017130;28;20120;-80
2023/05/30 01:36:51;;;;;;;17.65;4.05;;;;;;;7.98;94.66;102669.72;5017465;28;20507;-81
2023/05/30 01:39:17;;;;;;;16.88;4.32;;;;;;;7.90;94.50;102668.19;5033490;28;20072;-80
2023/05/30 01:42:01;;;;;;;15.48;4.50;;;;;;;7.97;94.78;102680.03;5033250;28;20080;-82
2023/05/30 01:44:40;;;;;;;15.30;4.10;;;;;;;7.64;94.67;102633.59;5106177;28;20044;-79
2023/05/30 01:47:22;;;;;;;11.32;3.90;;;;;;;7.42;95.13;102594.66;5097242;28;20567;-81
2023/05/30 01:50:08;;;;;;;14.90;4.32;;;;;;;7.76;95.01;102656.44;5116103;28;20028;-81
2023/05/30 01:52:40;;;;;;;12.98;3.92;;;;;;;7.90;95.75;102686.19;5115547;28;20036;-82
2023/05/30 01:55:07;;;;;;;15.52;4.07;;;;;;;7.92;95.51;102692.13;5115973;28;20119;-82
2023/05/30 01:57:38;;;;;;;15.77;3.67;;;;;;;7.88;95.77;102695.66;5115721;28;20547;-82
2023/05/30 02:00:05;;;;;;;16.05;4.53;;;;;;;7.68;95.82;102668.66;5116080;28;20028;-81
2023/05/30 02:02:31;;;;;;;13.80;4.50;;;;;;;7.74;95.98;102683.94;5098272;22;20504;-80
2023/05/30 02:04:57;;;;;;;10.73;3.88;;;;;;;7.81;96.16;102709.53;5075300;28;20028;-82
2023/05/30 02:07:22;;;;;;;13.77;4.18;;;;;;;7.81;96.48;102712.09;5075042;28;20024;-83
2023/05/30 02:09:49;;;;;;;14.48;4.45;;;;;;;7.74;96.00;102691.66;5075007;28;20488;-83
2023/05/30 02:12:14;;;;;;;19.63;4.57;;;;;;;7.85;96.00;102713.72;5074613;28;20040;-84
2023/05/30 02:14:40;;;;;;;12.65;4.20;;;;;;;7.58;96.39;102674.03;5075162;28;20027;-83
2023/05/30 02:17:06;;;;;;;17.08;4.82;;;;;;;7.73;96.39;102705.38;5075013;28;20028;-84
2023/05/30 02:19:31;;;;;;;15.32;4.68;;;;;;;7.63;96.69;102690.19;5074769;28;20072;-84
2023/05/30 02:21:56;;;;;;;19.65;4.65;;;;;;;7.80;96.70;102716.41;5074904;28;20020;-81
2023/05/30 02:24:22;;;;;;;21.38;4.90;;;;;;;7.68;96.64;102693.53;5056766;28;20025;-83
2023/05/30 02:26:48;;;;;;;15.68;4.68;;;;;;;7.65;96.90;102699.56;5074517;28;20033;-80
2023/05/30 02:29:13;;;;;;;16.05;4.35;;;;;;;7.79;96.93;102721.59;5074769;28;20025;-83
2023/05/30 02:31:39;;;;;;;14.80;4.15;;;;;;;7.63;96.80;102690.19;5074543;28;20036;-83
2023/05/30 02:34:04;;;;;;;12.93;4.15;;;;;;;7.58;96.93;102686.88;5056045;28;20036;-83
2023/05/30 02:36:30;;;;;;;15.63;4.45;;;;;;;7.71;96.94;102709.72;5074640;28;20020;-83
2023/05/30 02:38:55;;;;;;;16.35;4.38;;;;;;;7.69;97.03;102708.91;5074393;28;20032;-82
2023/05/30 02:41:21;;;;;;;13.02;4.50;;;;;;;7.33;97.29;102650.53;5074829;28;20036;-81
2023/05/30 02:43:46;;;;;;;20.85;4.80;;;;;;;7.40;97.65;102673.53;5074493;28;20097;-81
2023/05/30 02:46:12;;;;;;;17.17;5.20;;;;;;;7.64;97.50;102713.28;5074504;28;20033;-81
2023/05/30 02:48:37;;;;;;;16.55;4.75;;;;;;;7.52;97.66;102697.28;5074306;28;20024;-82
2023/05/30 02:51:02;;;;;;;15.57;4.90;;;;;;;7.61;97.63;102718.50;5074021;28;20086;-82
2023/05/30 02:53:28;;;;;;;13.95;4.88;;;;;;;7.60;98.21;102721.97;5073765;28;20074;-81
2023/05/30 02:55:56;;;;;;;13.95;4.35;;;;;;;7.60;98.09;102706.53;5074132;28;20016;-83
2023/05/30 02:58:23;;;;;;;18.85;5.15;;;;;;;7.57;98.28;102708.31;5073233;28;20056;-82
2023/05/30 03:00:49;;;;;;;15.80;4.53;;;;;;;7.50;98.91;102699.03;5074081;28;20032;-81
2023/05/30 03:03:14;;;;;;;14.40;4.90;;;;;;;7.51;98.92;102706.72;5074032;28;20037;-83
2023/05/30 03:05:40;;;;;;;17.52;4.53;;;;;;;7.44;98.95;102698.28;5073891;28;20456;-83
2023/05/30 03:08:05;;;;;;;15.88;5.00;;;;;;;7.37;99.27;102694.13;5073689;28;20031;-82
2023/05/30 03:10:30;;;;;;;13.65;5.00;;;;;;;7.36;99.69;102682.16;5073678;28;20073;-81
2023/05/30 03:12:55;;;;;;;17.55;5.05;;;;;;;7.32;99.64;102672.81;5074070;28;20460;-83
2023/05/30 03:15:21;;;;;;;16.67;5.25;;;;;;;7.58;99.56;102704.88;5073755;28;20033;-81
2023/05/30 03:17:47;;;;;;;14.65;4.60;;;;;;;7.63;99.82;102706.47;5073873;28;20047;-84
2023/05/30 03:20:12;;;;;;;17.13;5.18;;;;;;;7.22;99.31;102637.91;5073135;28;20092;-82
2023/05/30 03:22:38;;;;;;;17.90;5.60;;;;;;;7.41;99.10;102659.78;5073556;28;20047;-83
2023/05/30 03:25:05;;;;;;;15.73;5.10;;;;;;;7.54;99.23;102691.22;5073151;28;20025;-82
2023/05/30 03:27:30;;;;;;;18.42;5.63;;;;;;;7.79;99.05;102716.44;5073630;28;20031;-83
2023/05/30 03:29:56;;;;;;;18.42;5.00;;;;;;;7.76;99.16;102723.31;5073532;28;20021;-84
2023/05/30 03:32:22;;;;;;;13.77;4.50;;;;;;;7.83;98.98;102730.91;5073431;28;20107;-81
2023/05/30 03:34:47;;;;;;;15.25;5.05;;;;;;;7.86;98.82;102731.69;5073199;28;20070;-83
2023/05/30 03:37:12;;;;;;;16.17;5.32;;;;;;;7.89;99.30;102733.38;5073269;28;20024;-83
2023/05/30 03:39:38;;;;;;;16.77;5.22;;;;;;;7.92;98.70;102728.16;5073475;28;20031;-83
2023/05/30 03:42:04;;;;;;;15.25;5.20;;;;;;;7.94;98.42;102724.66;5073338;28;20407;-83
2023/05/30 03:44:29;;;;;;;16.60;5.25;;;;;;;7.95;98.67;102734.06;5073299;28;20027;-83
2023/05/30 03:46:55;;;;;;;18.70;4.85;;;;;;;7.96;98.57;102733.22;5073043;28;20020;-83
2023/05/30 03:49:20;;;;;;;16.40;5.25;;;;;;;7.85;98.40;102717.13;5072969;28;20107;-81
2023/05/30 03:51:45;;;;;;;14.27;5.00;;;;;;;7.67;98.34;102684.09;5073046;28;20025;-83
2023/05/30 03:54:13;;;;;;;14.02;5.10;;;;;;;8.02;98.34;102745.09;5072869;28;20035;-84
2023/05/30 03:56:39;;;;;;;21.38;5.32;;;;;;;8.08;98.93;102750.09;5072614;28;20021;-83
2023/05/30 03:59:04;;;;;;;15.30;5.00;;;;;;;8.13;98.19;102750.84;5072862;28;20031;-82
2023/05/30 04:01:30;;;;;;;20.15;5.63;;;;;;;7.85;98.26;102694.00;5072784;28;20123;-84
2023/05/30 04:03:56;;;;;;;13.13;5.07;;;;;;;8.29;98.24;102748.78;5072716;28;20035;-81
2023/05/30 04:06:21;;;;;;;14.77;4.75;;;;;;;8.33;97.48;102746.09;5072817;28;20033;-83
2023/05/30 04:08:47;;;;;;;17.48;4.90;;;;;;;8.23;97.04;102725.75;5072580;28;20530;-84
2023/05/30 04:11:12;;;;;;;16.50;4.68;;;;;;;8.34;96.75;102732.38;5072750;28;20028;-82
2023/05/30 04:13:37;;;;;;;17.90;5.10;;;;;;;8.18;97.03;102699.28;5072772;28;20083;-84
2023/05/30 04:16:03;;;;;;;14.32;4.80;;;;;;;8.25;96.63;102699.06;5072492;28;20480;-84
2023/05/30 04:18:28;;;;;;;17.05;5.30;;;;;;;8.59;96.19;102748.09;5073048;28;20028;-83
2023/05/30 04:20:54;;;;;;;17.75;5.45;;;;;;;8.63;96.06;102743.69;5072632;28;20032;-84
2023/05/30 04:23:19;;;;;;;18.60;4.90;;;;;;;8.62;95.67;102734.28;5072536;28;20040;-83
2023/05/30 04:25:44;;;;;;;13.15;5.18;;;;;;;8.72;95.38;102748.63;5072362;28;20087;-84
2023/05/30 04:28:16;;;;;;;14.10;4.75;;;;;;;8.62;95.84;102711.97;5072591;28;20028;-84
2023/05/30 04:30:48;;;;;;;17.08;4.85;;;;;;;8.67;95.01;102708.44;5072551;28;20024;-84
2023/05/30 04:33:16;;;;;;;14.95;5.30;;;;;;;8.81;94.90;102724.38;5071830;28;20035;-84
2023/05/30 04:35:48;;;;;;;15.85;4.60;;;;;;;8.82;93.97;102734.63;5054099;28;20032;-83
2023/05/30 04:38:16;;;;;;;16.67;5.20;;;;;;;8.74;94.54;102715.94;5071559;28;20424;-83
2023/05/30 04:40:42;;;;;;;14.98;5.10;;;;;;;9.01;94.34;102753.06;5072619;28;20029;-83
2023/05/30 04:43:08;;;;;;;17.55;5.07;;;;;;;9.03;94.78;102732.41;5054443;28;20056;-84
2023/05/30 04:45:36;;;;;;;12.02;5.15;;;;;;;9.18;93.62;102750.91;5072366;28;20412;-84
2023/05/30 04:48:03;;;;;;;27.45;5.75;;;;;;;8.97;93.38;102702.50;5072389;28;20020;-83
2023/05/30 04:50:29;;;;;;;18.65;5.53;;;;;;;9.21;92.71;102726.75;5072327;28;20025;-83
2023/05/30 04:52:54;;;;;;;14.73;5.07;;;;;;;9.33;92.25;102746.19;5072113;28;20379;-83
2023/05/30 04:55:20;;;;;;;14.63;4.85;;;;;;;9.35;92.12;102747.03;5072223;28;20028;-83
2023/05/30 04:57:45;;;;;;;19.55;5.95;;;;;;;9.23;92.18;102719.81;5072000;28;20021;-83
2023/05/30 05:00:13;;;;;;;17.42;5.13;;;;;;;9.41;92.08;102747.69;5072347;28;20021;-83
2023/05/30 05:02:40;;;;;;;15.18;5.38;;;;;;;9.53;91.46;102743.06;5072224;28;20133;-83
2023/05/30 05:05:06;;;;;;;11.55;4.63;;;;;;;9.58;91.16;102747.22;5072125;28;20424;-83
2023/05/30 05:07:32;;;;;;;17.63;5.57;;;;;;;9.57;91.07;102724.06;5072253;28;20070;-83
2023/05/30 05:09:57;;;;;;;17.85;5.47;;;;;;;9.69;90.36;102740.03;5072045;28;20067;-84
2023/05/30 05:12:22;;;;;;;16.83;5.00;;;;;;;9.78;89.65;102733.75;5071902;28;20402;-83
2023/05/30 05:14:49;;;;;;;17.45;5.10;;;;;;;9.74;89.57;102733.03;5072376;28;20028;-83
2023/05/30 05:17:15;;;;;;;16.33;4.95;;;;;;;9.86;89.46;102742.13;5072052;28;20395;-83
2023/05/30 06:07:44;;;;;;;13.93;5.50;;;;;;;9.83;81.65;102571.91;5014561;28;20115;-82
2023/05/30 06:10:26;;;;;;;;;;;;;;;;;;;;;
2023/05/30 06:13:24;;;;;;;15.40;6.55;;;;;;;11.14;81.77;102750.97;5093581;28;20048;-82
2023/05/30 06:15:50;;;;;;;14.38;6.45;;;;;;;10.99;81.73;102725.63;5095095;28;20063;-81
2023/05/30 06:18:43;;;;;;;16.52;5.93;;;;;;;11.35;82.13;102753.69;5095062;28;20020;-81
2023/05/30 06:24:30;;;;;;;13.50;5.78;;;;;;;10.69;77.93;102628.47;5095190;28;20051;-82
2023/05/30 06:33:01;;;;;;;15.32;6.53;;;;;;;11.55;79.42;102756.41;5260064;22;20019;-79
2023/05/30 06:35:26;;;;;;;16.20;6.63;;;;;;;10.75;77.60;102628.28;5135621;27;20106;-79
2023/05/30 06:37:51;;;;;;;12.40;5.35;;;;;;;10.52;77.67;102591.16;5134852;27;20114;-80
2023/05/30 06:40:26;;;;;;;12.38;5.57;;;;;;;10.56;76.48;102604.81;5135699;27;20054;-80
2023/05/30 06:43:13;;;;;;;12.13;5.72;;;;;;;11.66;77.10;102763.78;5135408;27;20168;-80
2023/05/30 06:45:38;;;;;;;13.52;5.90;;;;;;;11.36;77.15;102685.53;5116965;27;20023;-79
2023/05/30 06:48:16;;;;;;;13.93;5.68;;;;;;;10.83;76.52;102583.19;5135339;27;20027;-81
2023/05/30 06:50:57;;;;;;;11.82;5.82;;;;;;;11.04;77.06;102585.88;5135054;27;20023;-81
2023/05/30 06:53:22;;;;;;;12.75;5.80;;;;;;;11.34;75.68;102636.44;5135311;27;20110;-80
2023/05/30 06:56:10;;;;;;;12.57;5.57;;;;;;;12.17;75.77;102765.34;5134272;27;20074;-80
2023/05/30 06:58:49;;;;;;;14.10;5.90;;;;;;;11.29;75.67;102602.16;5116406;22;20055;-81
2023/05/30 07:01:15;;;;;;;12.85;6.32;;;;;;;12.32;73.25;102751.78;5092842;28;20052;-79
2023/05/30 07:03:40;;;;;;;12.90;5.38;;;;;;;12.60;72.75;102762.75;5093529;28;20541;-83
2023/05/30 07:06:06;;;;;;;10.75;5.10;;;;;;;12.39;72.88;102727.34;5093255;28;20028;-83
2023/05/30 07:08:31;;;;;;;11.75;5.25;;;;;;;12.56;71.77;102762.91;5092048;28;20032;-82
2023/05/30 07:10:57;;;;;;;14.38;5.88;;;;;;;12.56;73.74;102774.13;5093275;28;20024;-79
2023/05/30 07:13:22;;;;;;;14.05;5.95;;;;;;;12.72;73.23;102776.09;5093025;28;20085;-80
2023/05/30 07:15:47;;;;;;;14.40;6.25;;;;;;;12.85;70.66;102772.09;5093246;28;20031;-83
2023/05/30 07:20:56;;;;;;;13.02;5.70;;;;;;;11.65;70.64;102589.56;5088192;22;1092546;-83
2023/05/30 07:23:22;;;;;;;13.65;6.43;;;;;;;12.99;70.96;102780.16;5114492;28;20032;-82
2023/05/30 07:25:47;;;;;;;9.75;5.15;;;;;;;13.55;69.20;102770.84;5114499;28;20020;-82
2023/05/30 07:28:12;;;;;;;12.18;6.03;;;;;;;14.00;67.18;102781.75;5114053;28;20031;-82
2023/05/30 07:30:58;;;;;;;13.27;5.75;;;;;;;14.26;67.18;102790.94;5121328;27;20054;-79
2023/05/30 07:33:56;;;;;;;10.55;5.60;;;;;;;14.24;66.89;102787.56;5134498;27;20431;-84
2023/05/30 07:37:26;;;;;;;11.27;5.30;;;;;;;14.06;66.98;102785.84;5133751;22;20509;-79
2023/05/30 07:54:20;;;;;;;15.38;4.97;;;;;;;14.62;62.76;102790.94;5233660;22;20442;-85
2023/05/30 07:56:45;;;;;;;13.88;5.65;;;;;;;14.21;63.54;102779.06;5093585;28;20040;-81
2023/05/30 07:59:11;;;;;;;13.95;5.53;;;;;;;14.42;65.16;102785.84;5093173;28;20108;-82
2023/05/30 08:01:36;;;;;;;10.98;5.85;;;;;;;14.54;63.38;102764.47;5093304;28;20471;-82
2023/05/30 08:04:01;;;;;;;14.45;5.60;;;;;;;14.68;63.86;102768.19;5093381;28;20055;-83
2023/05/30 08:06:27;;;;;;;13.43;5.22;;;;;;;14.31;63.38;102751.72;5092276;28;20074;-84
2023/05/30 08:08:53;;;;;;;10.77;4.95;;;;;;;13.89;63.91;102723.44;5093472;28;20035;-83
2023/05/30 08:11:19;;;;;;;10.52;4.85;;;;;;;13.95;63.61;102765.53;5093297;28;20031;-82
2023/05/30 08:13:44;;;;;;;9.93;4.68;;;;;;;13.85;64.77;102771.22;5093046;28;20028;-83
2023/05/30 08:26:31;;;;;;;14.10;6.15;;;;;;;13.89;64.80;102758.03;5979865;22;20047;-88
2023/05/30 08:28:57;;;;;;;11.48;6.15;;;;;;;13.94;64.86;102750.84;5113004;28;20039;-82
2023/05/30 08:31:23;;;;;;;13.93;5.80;;;;;;;13.89;64.57;102765.81;5113004;28;20051;-81
2023/05/30 08:33:48;;;;;;;9.80;5.30;;;;;;;13.89;65.32;102757.19;5113407;28;20055;-87
2023/05/30 08:36:14;;;;;;;14.93;6.00;;;;;;;13.95;65.25;102759.50;5112291;28;20119;-84
2023/05/30 08:38:54;;;;;;;12.27;5.78;;;;;;;13.76;65.25;102711.03;5113070;28;20081;-80
2023/05/30 08:41:22;;;;;;;14.02;5.97;;;;;;;14.03;65.37;102760.81;5094897;28;20459;-85
2023/05/30 08:43:49;;;;;;;14.48;6.57;;;;;;;13.72;65.29;102725.03;5113043;28;20062;-85
2023/05/30 08:46:19;;;;;;;13.38;5.82;;;;;;;13.91;66.26;102744.97;5112126;28;20036;-85
2023/05/30 08:51:24;;;;;;;13.48;6.55;;;;;;;13.89;65.48;102729.47;5605551;22;20055;-84
2023/05/30 08:53:55;;;;;;;17.92;6.32;;;;;;;13.92;64.87;102726.72;5092882;28;20016;-89
2023/05/30 08:56:34;;;;;;;14.80;6.63;;;;;;;13.89;66.05;102719.06;5074446;28;20040;-88
2023/05/30 08:59:00;;;;;;;16.90;7.10;;;;;;;13.94;64.33;102718.84;5092733;28;20020;-87
2023/05/30 09:01:27;;;;;;;12.90;6.70;;;;;;;14.25;64.14;102742.44;5092717;28;20078;-82
2023/05/30 09:03:53;;;;;;;12.80;6.65;;;;;;;14.53;65.76;102739.41;5092801;28;20029;-91
2023/05/30 09:06:18;;;;;;;14.73;6.15;;;;;;;14.70;64.24;102735.97;5092667;28;20498;-89
2023/05/30 09:08:45;;;;;;;12.65;6.47;;;;;;;14.91;64.30;102734.03;5092797;28;20028;-90
2023/05/30 09:11:11;;;;;;;15.50;7.20;;;;;;;14.70;62.81;102703.94;5092294;28;20460;-86
2023/05/30 09:13:37;;;;;;;14.80;7.10;;;;;;;14.90;62.57;102740.16;5092705;28;20078;-83
2023/05/30 09:16:02;;;;;;;13.82;6.63;;;;;;;14.74;62.01;102711.47;5092713;28;20439;-86
2023/05/30 09:18:30;;;;;;;12.63;6.30;;;;;;;14.66;62.52;102703.25;5093616;28;20020;-84
2023/05/30 09:20:56;;;;;;;15.43;6.22;;;;;;;14.60;63.69;102709.59;5096559;28;20060;-83
2023/05/30 09:23:21;;;;;;;12.27;6.28;;;;;;;14.68;66.12;102732.59;5096347;28;20079;-83
2023/05/30 09:25:48;;;;;;;13.23;6.65;;;;;;;14.70;64.75;102707.38;5077992;28;20034;-83
2023/05/30 09:28:14;;;;;;;9.25;5.82;;;;;;;14.70;62.24;102693.53;5096169;28;20059;-84
2023/05/30 09:31:09;;;;;;;15.02;6.57;;;;;;;14.97;63.88;102727.69;5096212;28;20066;-82
2023/05/30 09:33:45;;;;;;;14.05;6.72;;;;;;;15.03;61.78;102728.22;5014264;28;20125;-88
2023/05/30 09:36:20;;;;;;;13.45;6.63;;;;;;;14.77;62.56;102700.09;5014167;28;20034;-84
2023/05/30 09:42:09;;;;;;;11.93;6.75;;;;;;;14.38;61.91;102607.56;4956916;28;20135;-83
2023/05/30 09:45:11;;;;;;;15.30;6.68;;;;;;;15.11;62.19;102713.03;4939262;29;20040;-85
2023/05/30 09:47:46;;;;;;;12.85;6.30;;;;;;;14.80;61.75;102664.38;4955577;28;20035;-86
2023/05/30 09:50:20;;;;;;;16.40;7.35;;;;;;;15.28;63.29;102706.13;4953270;28;20077;-82
2023/05/30 09:52:51;;;;;;;15.38;6.93;;;;;;;14.95;60.83;102630.69;4955305;28;20039;-85
2023/05/30 09:55:37;;;;;;;12.57;7.05;;;;;;;15.04;60.74;102648.38;4956174;28;20442;-82
2023/05/30 09:58:02;;;;;;;14.43;7.20;;;;;;;15.30;60.14;102694.69;4955365;28;20098;-78
2023/05/30 10:00:31;;;;;;;14.45;6.65;;;;;;;15.41;59.95;102700.16;5044954;23;20476;-85
2023/05/30 10:02:57;;;;;;;13.90;6.55;;;;;;;15.25;60.11;102649.03;5115778;28;20493;-89
2023/05/30 10:05:28;;;;;;;13.13;7.00;;;;;;;15.60;59.56;102701.78;5116070;28;20027;-89
2023/05/30 10:07:56;;;;;;;17.17;7.68;;;;;;;15.55;58.99;102701.22;5115962;28;20103;-92
2023/05/30 10:10:21;;;;;;;12.30;6.82;;;;;;;15.58;60.48;102704.47;5116013;28;20434;-85
2023/05/30 10:12:49;;;;;;;14.98;7.18;;;;;;;15.58;60.92;102677.59;5115467;28;20079;-85
2023/05/30 10:15:15;;;;;;;12.02;7.13;;;;;;;15.85;62.05;102673.50;5116067;28;20382;-82
2023/05/30 10:17:47;;;;;;;16.48;6.75;;;;;;;15.96;59.26;102683.34;5097593;28;20051;-83
2023/05/30 10:20:15;;;;;;;15.18;6.93;;;;;;;16.15;59.42;102691.78;5115815;28;20072;-86
2023/05/30 10:22:44;;;;;;;13.05;6.78;;;;;;;15.50;57.23;102599.91;5096481;28;20038;-86
2023/05/30 10:25:29;;;;;;;16.25;7.28;;;;;;;16.11;59.07;102698.09;5115461;28;20473;-85
2023/05/30 10:28:01;;;;;;;15.18;6.82;;;;;;;15.71;59.67;102606.53;5115563;28;20081;-86
2023/05/30 10:30:42;;;;;;;13.10;6.30;;;;;;;15.77;60.70;102605.38;5114337;28;20028;-86
2023/05/30 10:33:18;;;;;;;12.95;6.88;;;;;;;15.38;58.80;102546.75;5115488;28;20027;-84
2023/05/30 10:36:24;;;;;;;11.52;7.45;;;;;;;16.28;59.08;102689.31;5115439;28;20023;-83
2023/05/30 10:39:14;;;;;;;16.77;6.95;;;;;;;16.18;57.97;102690.78;5115478;28;20067;-86
2023/05/30 10:42:09;;;;;;;15.15;6.82;;;;;;;16.29;59.38;102681.41;5115247;28;20040;-85
2023/05/30 10:45:19;;;;;;;17.35;7.03;;;;;;;16.30;57.22;102679.63;5122404;27;20031;-87
2023/05/30 10:48:32;;;;;;;14.02;6.47;;;;;;;16.34;56.97;102676.78;5135019;27;20072;-87
2023/05/30 10:51:01;;;;;;;11.40;6.05;;;;;;;16.33;56.92;102685.53;5136260;27;20113;-87
2023/05/30 10:53:27;;;;;;;17.05;7.13;;;;;;;16.46;56.80;102682.19;5135761;27;20028;-85
2023/05/30 10:55:53;;;;;;;15.43;7.32;;;;;;;16.39;55.72;102676.50;5117304;27;20038;-86
2023/05/30 10:58:41;;;;;;;15.30;7.05;;;;;;;16.32;57.16;102675.16;5135650;27;20015;-87
2023/05/30 11:01:26;;;;;;;13.00;5.97;;;;;;;16.27;57.40;102643.31;5135337;27;20039;-86
2023/05/30 11:04:46;;;;;;;14.20;7.03;;;;;;;16.53;57.04;102673.09;5117136;27;20039;-88
2023/05/30 11:07:23;;;;;;;13.38;6.43;;;;;;;15.66;57.84;102490.53;5135671;27;20118;-84
2023/05/30 11:13:52;;;;;;;9.90;6.15;;;;;;;16.31;56.69;102590.06;5054410;28;20611;-85
2023/05/30 11:16:55;;;;;;;11.63;5.43;;;;;;;16.64;58.61;102624.56;5053966;28;20036;-84
2023/05/30 11:19:27;;;;;;;12.88;6.53;;;;;;;16.95;57.16;102655.84;5054031;28;20029;-77
2023/05/30 11:21:57;;;;;;;10.77;6.18;;;;;;;16.73;56.11;102627.59;5054221;28;20025;-81
2023/05/30 11:24:30;;;;;;;14.35;6.80;;;;;;;16.95;54.90;102642.78;5053968;28;20052;-81
2023/05/30 11:27:07;;;;;;;12.52;5.88;;;;;;;17.01;55.31;102642.41;5036639;28;20380;-80
2023/05/30 11:29:43;;;;;;;12.13;5.50;;;;;;;17.22;55.63;102648.09;5053944;28;20103;-80
2023/05/30 11:32:10;;;;;;;12.85;6.00;;;;;;;17.24;55.49;102641.84;5053252;28;20048;-81
2023/05/30 11:34:36;;;;;;;17.20;6.50;;;;;;;17.15;55.64;102647.63;5053960;28;20048;-80
2023/05/30 11:37:02;;;;;;;15.30;6.88;;;;;;;17.18;54.95;102652.66;5053797;28;20044;-80
2023/05/30 11:39:31;;;;;;;12.40;6.20;;;;;;;17.03;54.74;102614.44;5053512;28;20023;-81
2023/05/30 11:41:56;;;;;;;15.07;6.55;;;;;;;17.23;54.08;102642.78;5035194;28;20072;-80
2023/05/30 11:44:23;;;;;;;11.85;5.47;;;;;;;17.31;54.00;102631.84;5053554;28;20048;-80
2023/05/30 11:46:59;;;;;;;14.48;5.03;;;;;;;17.39;54.43;102625.19;5053003;28;20029;-79
2023/05/30 11:49:25;;;;;;;11.30;4.85;;;;;;;17.63;55.13;102624.56;5053185;28;20061;-81
2023/05/30 11:51:52;;;;;;;14.13;5.68;;;;;;;17.63;54.76;102619.34;5035030;28;20064;-80
2023/05/30 11:54:17;;;;;;;15.25;7.05;;;;;;;17.60;53.82;102609.06;5053280;28;20025;-80
2023/05/30 11:56:43;;;;;;;12.75;5.75;;;;;;;17.77;55.16;102627.16;5053297;28;20029;-80
2023/05/30 11:59:09;;;;;;;11.13;6.15;;;;;;;17.73;53.40;102623.06;5053010;28;20021;-80
2023/05/30 12:01:34;;;;;;;11.88;5.68;;;;;;;17.39;52.76;102572.94;5053039;28;20509;-80
2023/05/30 12:04:00;;;;;;;13.95;5.80;;;;;;;17.66;53.20;102606.91;5053172;28;20051;-81
2023/05/30 12:06:25;;;;;;;15.32;6.30;;;;;;;17.70;53.65;102599.78;5052693;28;20028;-77
2023/05/30 12:08:51;;;;;;;12.02;6.22;;;;;;;17.60;53.71;102589.03;5053916;28;20021;-79
2023/05/30 12:11:16;;;;;;;14.30;6.25;;;;;;;17.65;53.33;102594.78;5046953;28;20045;-79
2023/05/30 12:13:42;;;;;;;13.73;5.72;;;;;;;17.61;54.73;102575.03;5055052;28;20430;-77
2023/05/30 12:16:11;;;;;;;11.63;5.30;;;;;;;17.71;53.38;102570.94;5072948;28;20472;-80
2023/05/30 12:18:37;;;;;;;11.27;4.80;;;;;;;18.14;55.71;102609.06;5073077;28;20016;-80
2023/05/30 12:21:02;;;;;;;10.68;4.80;;;;;;;18.19;53.00;102596.50;5073209;28;20474;-79
2023/05/30 12:23:29;;;;;;;8.90;4.93;;;;;;;18.15;52.48;102597.66;5072943;28;20434;-79
2023/05/30 12:25:55;;;;;;;10.13;4.78;;;;;;;18.09;50.89;102587.59;5072820;28;20021;-77
2023/05/30 12:28:22;;;;;;;15.02;5.45;;;;;;;18.17;52.57;102586.16;5072735;28;20025;-81
2023/05/30 12:30:50;;;;;;;11.70;4.97;;;;;;;18.12;49.94;102580.41;5072545;28;20112;-82
2023/05/30 12:33:17;;;;;;;12.75;5.22;;;;;;;18.26;51.66;102584.69;5072145;28;20545;-81
2023/05/30 12:35:44;;;;;;;12.20;5.50;;;;;;;18.32;51.13;102573.84;5072601;28;20502;-83
2023/05/30 12:38:16;;;;;;;12.98;5.72;;;;;;;18.26;50.21;102579.47;5072356;28;20035;-82
2023/05/30 12:40:50;;;;;;;;;;;;;;;18.21;52.47;102573.72;5073184;28;20025;-81
2023/05/30 12:43:25;;;;;;;11.88;4.97;;;;;;;18.33;52.69;102572.88;5072713;28;19965;-82
2023/05/30 12:45:50;;;;;;;8.93;4.45;;;;;;;18.24;51.61;102549.97;5054403;28;20051;-79
2023/05/30 12:48:15;;;;;;;12.43;5.05;;;;;;;18.40;51.44;102557.63;5072579;28;20032;-80
2023/05/30 12:50:41;;;;;;;10.45;4.95;;;;;;;18.52;51.54;102557.59;5072633;28;20044;-78
2023/05/30 12:53:06;;;;;;;11.13;5.63;;;;;;;18.57;52.07;102563.34;5072775;28;20388;-81
2023/05/30 12:55:31;;;;;;;12.38;5.72;;;;;;;18.46;49.39;102571.09;5058640;28;20158;-80
2023/05/30 12:57:59;;;;;;;11.45;4.82;;;;;;;18.33;53.00;102533.66;5076622;28;20096;-80
2023/05/30 13:00:26;;;;;;;12.57;4.53;;;;;;;18.56;49.76;102564.28;5076412;28;20032;-80
2023/05/30 13:02:52;;;;;;;11.13;4.45;;;;;;;18.28;49.98;102520.03;5074545;28;20028;-80
2023/05/30 13:05:17;;;;;;;9.35;4.47;;;;;;;18.63;49.23;102570.78;5077183;28;20028;-79
2023/05/30 13:07:43;;;;;;;13.95;5.00;;;;;;;18.70;48.44;102570.41;5076558;28;20029;-76
2023/05/30 13:10:09;;;;;;;11.02;4.70;;;;;;;18.71;49.24;102567.66;5076169;28;20041;-79
2023/05/30 13:12:34;;;;;;;11.98;4.95;;;;;;;18.58;50.07;102541.50;5061045;28;20033;-78
2023/05/30 13:15:00;;;;;;;16.20;5.18;;;;;;;18.56;49.09;102522.44;5056541;28;20357;-79